Terminal Aerodrome Forecast
Issued by NWS

Home | Current Version | Previous Version | Text Only | Print | Product List | Glossary On
Versions: 1 2 3 4 5 6 7 8 9 10 11 12 13 14 15 16 17 18 19 20 21 22 23 24 25 26 27 28 29 30 31 32 33 34 35 36 37 38 39 40 41 42 43 44
000
FTUS41 KCAR 291728
TAFPQI
TAF
KPQI 291728Z 2918/3018 22013G21KT P6SM SCT060
     FM300130 20007KT P6SM VCTS SCT030CB BKN045 WS020/23035KT
     FM300400 20006KT 6SM -SHRA VCTS SCT018CB OVC030 WS020/23035KT
     FM300600 19006KT 6SM -SHRA OVC015 WS020/23035KT
     FM300930 20009KT 5SM -SHRA OVC009
     FM301300 21012G21KT 6SM -SHRA OVC015
     FM301600 23014G22KT P6SM VCSH BKN025=

USA.gov is the U.S. government's official web portal to all federal, state and local government web resources and services.